Tiempo atmosférico en la estación meteorológica de Campos, Can Sion, Illes Balears (40 m.)



Fecha
DESCASC
Temp. máxima en grados centígrados (hora)
DESCASC
Temp. mínima en grados centígrados (hora)
DESCASC
Temp. media en grados centígrados
DESCASC
Racha de viento máxima en m/sg (hora)
DESCASC
Velocidad máxima media en intervalos de 10 minutos(hora)
DESCASC
Precipitaciones diarias en mm
DESCASC
Precipitaciones de 00:00 a 06:00 en mm
DESCASC
Precipitaciones de 06:00 a 12:00 en mm
DESCASC
Precipitaciones de 12:00 a 18:00 en mm
DESCASC
Precipitaciones de 18:00 a 24:00 en mm
DESCASC
14-02-2019 16.9 (14:30) -0.3 (03:20) 8.3 7.22 (12:30) 3.89 (11:00) 0.2 0 0.2 0 0
13-02-2019 17.9 (13:40) -0.9 (02:10) 8.5 5.28 (15:20) 2.5 (14:40) 0 0 0 0 0
12-02-2019 16.7 (14:30) 1.2 (23:59) 9 5.28 (14:20) 2.78 (14:20) 0.2 0.2 0 0 0
11-02-2019 17.1 (12:50) 5.3 (23:59) 11.2 5 (14:10) 3.06 (13:10) 0.8 0 0 0.8 0
10-02-2019 17.4 (13:50) 7.2 (00:00) 12.3 14.72 (14:30) 8.06 (15:30) 0 0 0 0 0
09-02-2019 16.9 (13:00) 6.2 (00:00) 11.5 6.67 (12:50) 3.61 (13:20) 0 0 0 0 0
08-02-2019 16.8 (13:20) 2.9 (00:00) 9.8 7.78 (14:10) 3.61 (14:10) 0 0 0 0 0
07-02-2019 19.7 (15:40) 4.2 (00:00) 12 5 (15:40) 3.06 (15:50) 0 0 0 0 0
06-02-2019 17.8 (12:50) 0.8 (00:00) 9.3 7.78 (14:00) 4.72 (14:00) 0 0 0 0 0
05-02-2019 17.3 (17:10) -1.9 (-00:0) 7.7 6.39 (14:30) 3.06 (14:20) 0 0 0 0 0
04-02-2019 15.2 (15:10) -1.8 (-00:0) 6.7 6.67 (14:00) 3.33 (12:20) 0 0 0 0 0
03-02-2019 13.9 (12:50) -0.6 (-00:0) 6.6 6.94 (13:10) 4.17 (13:10) 0 0 0 0 0
02-02-2019 14.9 (12:20) 4.8 (00:00) 9.8 14.17 (14:30) 8.33 (04:20) 0.4 0 0 0.4 0
01-02-2019 16.4 (15:40) 11.8 (00:00) 14.1 14.72 (11:50) 7.5 (07:50) 2 0 2 0 0
31-01-2019 17.8 (15:30) 2.3 (00:00) 10 13.89 (14:50) 8.33 (15:00) -- -- 0 0 0
30-01-2019 15.5 (15:30) 2.3 (00:00) 8.9 12.78 (03:30) 6.94 (03:30) -- -- -- -- --
29-01-2019 12.9 (14:50) 1.2 (00:00) 7 7.5 (23:30) 3.61 (15:00) -- -- -- -- --
28-01-2019 15.4 (15:10) 5.1 (00:00) 10.2 15.56 (15:10) 8.89 (15:10) 1 0 0 0 1
27-01-2019 18.7 (13:10) 4.6 (00:00) 11.7 15.83 (16:40) 8.33 (16:40) 0 0 0 0 0
26-01-2019 17.9 (14:30) 1.6 (00:00) 9.7 8.89 (15:00) 5.28 (15:00) 0 0 0 0 0
25-01-2019 15.5 (13:10) -3 (-00:0) 6.3 7.78 (13:50) 3.61 (13:50) 0 0 0 0 0
24-01-2019 13.2 (13:50) 0.9 (00:00) 7 11.11 (11:40) 5.56 (12:20) 0.6 0.6 0 0 0
23-01-2019 15.2 (15:40) 5.1 (00:00) 10.1 14.44 (15:30) 8.61 (15:30) 0.8 0 0.6 0.2 0
22-01-2019 13.6 (13:40) 0 (00:00) 6.8 9.17 (14:10) 4.72 (14:10) 0.2 0.2 0 0 0
21-01-2019 13.8 (14:30) 0.5 (00:00) 7.2 11.11 (14:40) 5 (14:40) 4.4 1.4 2.8 0.2 0
20-01-2019 15 (16:50) 2 (00:00) 8.5 12.22 (21:50) 5.56 (20:00) 2.2 0 1.4 0 0.8
19-01-2019 14.9 (13:10) 2 (00:00) 8.4 5.28 (14:20) 2.78 (16:40) 0 0 0 0 0

Gráficas

Temp. máximas Temp. mínimas Temp. medias Precipitaciones Rachas de viento máximas Velocidades máximas media en intervalos de 10 minutos

Datos horarios

Fecha y hora oficial Temperatura (ºC) Velocidad del viento (km/h) Dirección del viento Racha (km/h) Dirección de racha Precipitación (mm) Presión (hPa) Tendencia (hPa) Humedad (%)
2019-02-17 23:00:00 4 2 Este 5 Este 0 -- -- 95
2019-02-17 22:00:00 4.5 3 Norte 5 Norte 0 -- -- 93
2019-02-17 21:00:00 5.5 3 Nordeste 5 Nordeste 0 -- -- 91
2019-02-17 20:00:00 7.2 0 Calma 3 Este 0 -- -- 87
2019-02-17 19:00:00 10.3 3 Este 10 Este 0 -- -- 84
2019-02-17 18:00:00 13.1 8 Este 18 Este 0 -- -- 81
2019-02-17 17:00:00 15.3 11 Este 19 Este 0 -- -- 72
2019-02-17 16:00:00 16.2 10 Este 22 Este 0 -- -- 66
2019-02-17 15:00:00 16.3 13 Este 21 Este 0 -- -- 61
2019-02-17 14:00:00 17.4 10 Este 21 Sudeste 0 -- -- 63
2019-02-17 13:00:00 16.4 10 Este 20 Sudeste 0 -- -- 65
2019-02-17 12:00:00 16.2 10 Este 20 Este 0 -- -- 66
2019-02-17 11:00:00 14.7 11 Este 19 Este 0 -- -- 78
2019-02-17 10:00:00 10.9 4 Nordeste 9 Nordeste 0 -- -- 100
2019-02-17 09:00:00 7.5 2 Este 8 Nordeste 0 -- -- 100
2019-02-17 08:00:00 4.4 0 Calma 5 Este 0 -- -- 99
2019-02-17 07:00:00 4.5 2 Este 6 Nordeste 0 -- -- 99
2019-02-17 06:00:00 5 3 Nordeste 8 Nordeste 0 -- -- 98
2019-02-17 05:00:00 5.4 4 Nordeste 6 Nordeste 0 -- -- 99
2019-02-17 04:00:00 3.5 3 Nordeste 7 Nordeste 0 -- -- 99
2019-02-17 03:00:00 2.6 3 Este 5 Nordeste 0 -- -- 97
2019-02-17 02:00:00 3 2 Nordeste 6 Nordeste 0 -- -- 97
2019-02-17 01:00:00 2.4 3 Nordeste 6 Nordeste 0 -- -- 96
2019-02-17 00:00:00 2.8 2 Nordeste 4 Nordeste 0 -- -- 95
2019-02-16 23:00:00 3.7 0 Calma 5 Nordeste 0 -- -- 95
2019-02-16 22:00:00 3.8 3 Este 4 Este 0 -- -- 94
2019-02-16 21:00:00 5.1 4 Este 6 Este 0 -- -- 92
2019-02-16 20:00:00 6.3 4 Este 5 Este 0 -- -- 86
2019-02-16 19:00:00 10 4 Este 9 Este 0 -- -- 79
2019-02-16 18:00:00 14.9 5 Este 13 Nordeste 0 -- -- 69
2019-02-16 17:00:00 16.2 9 Este 19 Este 0 -- -- 67
2019-02-16 16:00:00 17 13 Este 22 Este 0 -- -- 62
2019-02-16 15:00:00 17.5 9 Nordeste 22 Este 0 -- -- 62
2019-02-16 14:00:00 17.7 13 Este 22 Sudeste 0 -- -- 60
2019-02-16 13:00:00 17.7 8 Este 20 Nordeste 0 -- -- 55
2019-02-16 12:00:00 16.8 10 Este 21 Este 0 -- -- 52
2019-02-16 11:00:00 13.9 8 Nordeste 23 Nordeste 0 -- -- 67
2019-02-16 10:00:00 8.9 3 Nordeste 10 Norte 0 -- -- 100
2019-02-16 09:00:00 5.7 4 Norte 9 Nordeste 0 -- -- 100
2019-02-16 08:00:00 3.6 5 Nordeste 10 Nordeste 0 -- -- 100
2019-02-16 07:00:00 2.9 3 Nordeste 10 Nordeste 0 -- -- 99
2019-02-16 06:00:00 4.2 4 Nordeste 10 Norte 0 -- -- 99
2019-02-16 05:00:00 4.6 5 Nordeste 10 Nordeste 0.2 -- -- 100
2019-02-16 04:00:00 3 0 Calma 4 Este 0 -- -- 99
2019-02-16 03:00:00 1.6 2 Este 6 Este 0 -- -- 99
2019-02-16 02:00:00 0.8 4 Este 7 Este 0 -- -- 97
2019-02-16 01:00:00 1.5 4 Este 5 Este 0 -- -- 97
2019-02-16 00:00:00 0.2 3 Este 4 Este 0 -- -- 94
2019-02-15 23:00:00 0.6 0 Calma 4 Este 0 -- -- 93
2019-02-15 22:00:00 2.3 2 Este 5 Nordeste 0 -- -- 92
2019-02-15 21:00:00 4.1 3 Este 4 Este 0 -- -- 90
2019-02-15 20:00:00 7 0 Calma 6 Nordeste 0 -- -- 87
2019-02-15 19:00:00 10.2 4 Nordeste 14 Este 0 -- -- 85
2019-02-15 18:00:00 14.5 8 Este 20 Nordeste 0 -- -- 67
2019-02-15 17:00:00 16.8 11 Este 18 Este 0 -- -- 56
2019-02-15 16:00:00 17.7 11 Sudeste 18 Sudeste 0 -- -- 54
2019-02-15 15:00:00 18 8 Este 17 Este 0 -- -- 57
2019-02-15 14:00:00 17.4 12 Este 21 Este 0 -- -- 59
2019-02-15 13:00:00 17.3 10 Este 18 Este 0 -- -- 63
2019-02-15 12:00:00 16.3 8 Este 17 Este 0 -- -- 71
2019-02-15 11:00:00 13.6 10 Este 18 Este 0 -- -- 92
2019-02-15 10:00:00 10.3 4 Norte 9 Nordeste 0 -- -- 100
2019-02-15 09:00:00 5.8 3 Este 6 Este 0 -- -- 100
2019-02-15 08:00:00 1.2 3 Este 5 Nordeste 0 -- -- 100
2019-02-15 07:00:00 0.7 3 Este 6 Este 0 -- -- 99
2019-02-15 06:00:00 2.1 2 Este 5 Este 0 -- -- 99
2019-02-15 05:00:00 2.5 2 Este 8 Nordeste 0 -- -- 99
2019-02-15 04:00:00 2.2 4 Este 6 Este 0 -- -- 98
2019-02-15 03:00:00 2.4 4 Este 6 Este 0 -- -- 98
2019-02-15 02:00:00 2 2 Este 6 Norte 0 -- -- 99
2019-02-15 01:00:00 2.3 2 Este 8 Este 0 -- -- 97
2019-02-15 00:00:00 2 2 Este 5 Nordeste 0 -- -- 96
2019-02-14 23:00:00 2 2 Este 5 Este 0 -- -- 94
2019-02-14 22:00:00 2.5 2 Nordeste 4 Norte 0 -- -- 93
2019-02-14 21:00:00 3.5 3 Nordeste 4 Nordeste 0 -- -- 90
2019-02-14 20:00:00 5.4 2 Nordeste 4 Nordeste 0 -- -- 85
2019-02-14 19:00:00 9.1 0 Calma 16 Este 0 -- -- 81
2019-02-14 18:00:00 12.9 10 Este 20 Este 0 -- -- 73
2019-02-14 17:00:00 14.7 13 Este 21 Este 0 -- -- 65
2019-02-14 16:00:00 16 13 Este 21 Este 0 -- -- 60
2019-02-14 15:00:00 16.7 12 Este 20 Este 0 -- -- 57
2019-02-14 14:00:00 16.7 12 Este 22 Este 0 -- -- 58
2019-02-14 13:00:00 16 10 Este 26 Este 0 -- -- 59
2019-02-14 12:00:00 15.5 12 Este 24 Este 0 -- -- 65
2019-02-14 11:00:00 14.2 14 Este 22 Este 0 -- -- 71
2019-02-14 10:00:00 10.3 4 Nordeste 12 Nordeste 0 -- -- 95
2019-02-14 09:00:00 6.2 4 Nordeste 9 Este 0.2 -- -- 100
2019-02-14 08:00:00 1.7 3 Nordeste 7 Nordeste 0 -- -- 99
2019-02-14 07:00:00 1.2 3 Nordeste 7 Nordeste 0 -- -- 99
2019-02-14 06:00:00 1.5 2 Este 8 Nordeste 0 -- -- 98
2019-02-14 05:00:00 1.6 4 Nordeste 11 Nordeste 0 -- -- 98
2019-02-14 04:00:00 1 4 Este 9 Nordeste 0 -- -- 98
2019-02-14 03:00:00 0 2 Nordeste 8 Nordeste 0 -- -- 97
2019-02-14 02:00:00 0.3 3 Nordeste 6 Este 0 -- -- 96
2019-02-14 01:00:00 0.6 3 Este 5 Este 0 -- -- 97
2019-02-14 00:00:00 0.9 4 Este 5 Este 0 -- -- 97
2019-02-13 23:00:00 0.9 3 Este 5 Este 0 -- -- 94
2019-02-13 22:00:00 2.2 3 Este 5 Este 0 -- -- 93
2019-02-13 21:00:00 3 3 Nordeste 6 Este 0 -- -- 90
2019-02-13 20:00:00 5 4 Este 5 Este 0 -- -- 85
2019-02-13 19:00:00 8.6 0 Calma 9 Sudeste 0 -- -- 74
2019-02-13 18:00:00 13.7 6 Sudeste 12 Sudeste 0 -- -- 58
2019-02-13 17:00:00 15.9 6 Sudeste 14 Sudeste 0 -- -- 33
2019-02-13 16:00:00 17.1 7 Sudeste 19 Sudeste 0 -- -- 32
2019-02-13 15:00:00 17.3 6 Sur 15 Sudoeste 0 -- -- 40
2019-02-13 14:00:00 17.9 7 Sudeste 14 Este 0 -- -- 39
2019-02-13 13:00:00 16.9 3 Nordeste 11 Oeste 0 -- -- 55
2019-02-13 12:00:00 15.6 4 Sudoeste 9 Oeste 0 -- -- 64
2019-02-13 11:00:00 14.1 3 Noroeste 5 Noroeste 0 -- -- 72
2019-02-13 10:00:00 10.7 0 Calma 4 Nordeste 0 -- -- 98
2019-02-13 09:00:00 5.3 3 Este 7 Este 0 -- -- 100
2019-02-13 08:00:00 0.6 5 Este 7 Este 0 -- -- 100
2019-02-13 07:00:00 0.1 5 Este 7 Este 0 -- -- 98
2019-02-13 06:00:00 0.2 4 Este 6 Este 0 -- -- 98
2019-02-13 05:00:00 0 3 Este 7 Este 0 -- -- 98
2019-02-13 04:00:00 0.3 4 Este 5 Este 0 -- -- 97
2019-02-13 03:00:00 -0.3 2 Este 4 Este 0 -- -- 97
2019-02-13 02:00:00 -0.8 0 Calma 3 Este 0 -- -- 95
2019-02-13 01:00:00 0.4 0 Calma 5 Este 0 -- -- 95
2019-02-13 00:00:00 1.2 2 Este 6 Nordeste 0 -- -- 94
2019-02-12 23:00:00 2.5 4 Este 5 Este 0 -- -- 94
2019-02-12 22:00:00 3.3 2 Este 5 Este 0 -- -- 92
2019-02-12 21:00:00 5.6 4 Este 5 Este 0 -- -- 92
2019-02-12 20:00:00 7.1 4 Este 6 Este 0 -- -- 88
2019-02-12 19:00:00 10.3 0 Calma 8 Oeste 0 -- -- 84
2019-02-12 18:00:00 13.1 5 Oeste 13 Sudoeste 0 -- -- 76
2019-02-12 17:00:00 13.9 0 Calma 9 Norte 0 -- -- 64
2019-02-12 16:00:00 15.4 4 Norte 15 Este 0 -- -- 57
2019-02-12 15:00:00 16.2 6 Nordeste 19 Nordeste 0 -- -- 55
2019-02-12 14:00:00 16.6 8 Norte 18 Norte 0 -- -- 59
2019-02-12 13:00:00 15.7 6 Nordeste 13 Norte 0 -- -- 63
2019-02-12 12:00:00 14.1 4 Norte 12 Noroeste 0 -- -- 75
2019-02-12 11:00:00 13.2 3 Noroeste 6 Noroeste 0 -- -- 85
2019-02-12 10:00:00 11.1 0 Calma 5 Este 0 -- -- 100
2019-02-12 09:00:00 6.2 0 Calma 4 Este 0 -- -- 100
2019-02-12 08:00:00 2.8 4 Este 5 Este 0 -- -- 99
2019-02-12 07:00:00 3.5 3 Este 5 Este 0 -- -- 99
2019-02-12 06:00:00 4.1 4 Nordeste 5 Nordeste 0.2 -- -- 99
2019-02-12 05:00:00 3.6 3 Este 8 Este 0 -- -- 99
2019-02-12 04:00:00 3.4 4 Este 5 Este 0 -- -- 98
2019-02-12 03:00:00 4.9 2 Este 4 Este 0 -- -- 97
2019-02-12 02:00:00 6.1 0 Calma 3 Este 0 -- -- 98
2019-02-12 01:00:00 4.8 0 Calma 3 Este 0 -- -- 98
2019-02-12 00:00:00 5.3 0 Calma 4 Este 0 -- -- 96
2019-02-11 23:00:00 5.9 2 Este 3 Este 0 -- -- 97
2019-02-11 22:00:00 6 0 Calma 2 Este 0 -- -- 95
2019-02-11 21:00:00 7.9 2 Este 5 Sur 0 -- -- 95
2019-02-11 20:00:00 9.3 0 Calma 4 Nordeste 0 -- -- 95
2019-02-11 19:00:00 9.8 2 Este 8 Este 0 -- -- 94
2019-02-11 18:00:00 10.8 0 Calma 8 Oeste 0.2 -- -- 93
2019-02-11 17:00:00 11.3 4 Norte 8 Noroeste 0 -- -- 91
2019-02-11 16:00:00 11.6 2 Nordeste 11 Este 0.2 -- -- 89
2019-02-11 15:00:00 11.7 2 Este 18 Este 0.4 -- -- 88
2019-02-11 14:00:00 13.4 8 Este 17 Este 0 -- -- 71
2019-02-11 13:00:00 16.8 5 Sudeste 16 Sur 0 -- -- 55
2019-02-11 12:00:00 15.4 5 Este 15 Este 0 -- -- 60
2019-02-11 11:00:00 14.7 9 Este 18 Este 0 -- -- 67
2019-02-11 10:00:00 13.2 4 Nordeste 12 Este 0 -- -- 82
2019-02-11 09:00:00 9.9 0 Calma 11 Nordeste 0 -- -- 99
2019-02-11 08:00:00 8.7 3 Nordeste 11 Nordeste 0 -- -- 98
2019-02-11 07:00:00 8.1 4 Nordeste 11 Nordeste 0 -- -- 100
2019-02-11 06:00:00 6.1 3 Norte 4 Norte 0 -- -- 99
2019-02-11 05:00:00 6.2 2 Este 5 Nordeste 0 -- -- 97
2019-02-11 04:00:00 6.1 3 Este 5 Este 0 -- -- 98
2019-02-11 03:00:00 6.8 5 Este 8 Este 0 -- -- 97
2019-02-11 02:00:00 6 0 Calma 3 Este 0 -- -- 93
2019-02-11 01:00:00 7.5 0 Calma 5 Este 0 -- -- 92
2019-02-11 00:00:00 9.7 0 Calma 8 Sudoeste 0 -- -- 89
2019-02-10 23:00:00 11.6 7 Sudoeste 16 Oeste 0 -- -- 86
2019-02-10 22:00:00 11 6 Oeste 11 Sudoeste 0 -- -- 87
2019-02-10 21:00:00 11.6 7 Oeste 19 Sudoeste 0 -- -- 84
2019-02-10 20:00:00 12.4 13 Sudoeste 21 Oeste 0 -- -- 82
2019-02-10 19:00:00 12.6 8 Sudoeste 24 Oeste 0 -- -- 78
2019-02-10 18:00:00 14 13 Oeste 32 Oeste 0 -- -- 72
2019-02-10 17:00:00 14.8 20 Oeste 42 Oeste 0 -- -- 67
2019-02-10 16:00:00 15.4 25 Oeste 51 Oeste 0 -- -- 62
2019-02-10 15:00:00 17 25 Oeste 53 Oeste 0 -- -- 58
2019-02-10 14:00:00 17 21 Sudoeste 39 Sudoeste 0 -- -- 78
2019-02-10 13:00:00 15.3 21 Sudoeste 35 Sudoeste 0 -- -- 85
2019-02-10 12:00:00 15.2 18 Sudoeste 31 Sudoeste 0 -- -- 86
2019-02-10 11:00:00 14.2 15 Sudoeste 31 Sudoeste 0 -- -- 88
2019-02-10 10:00:00 14.2 14 Sudoeste 28 Sudoeste 0 -- -- 87
2019-02-10 09:00:00 12.8 14 Sudoeste 26 Oeste 0 -- -- 91
2019-02-10 08:00:00 12.3 10 Sudoeste 21 Oeste 0 -- -- 92
2019-02-10 07:00:00 11.8 8 Sudoeste 21 Sudoeste 0 -- -- 93
2019-02-10 06:00:00 11.2 7 Sudoeste 18 Sudoeste 0 -- -- 96
2019-02-10 05:00:00 11.3 7 Sudoeste 22 Sudoeste 0 -- -- 99
2019-02-10 04:00:00 10.9 8 Sudoeste 17 Sudoeste 0 -- -- 100
2019-02-10 03:00:00 8.2 4 Sudoeste 6 Sudoeste 0 -- -- 100
2019-02-10 02:00:00 7.3 0 Calma 3 Sudeste 0 -- -- 99
2019-02-10 01:00:00 7.6 0 Calma 2 Sudoeste 0 -- -- 98
2019-02-10 00:00:00 8.3 0 Calma 4 Oeste 0 -- -- 99
2019-02-09 23:00:00 7.4 0 Calma 3 Sudeste 0 -- -- 98
2019-02-09 22:00:00 6.3 2 Este 3 Este 0 -- -- 96
2019-02-09 21:00:00 6.4 0 Calma 5 Este 0 -- -- 93
2019-02-09 20:00:00 8 2 Sudeste 4 Sur 0 -- -- 90
2019-02-09 19:00:00 11.3 2 Sur 9 Sudoeste 0 -- -- 89
2019-02-09 18:00:00 14.2 6 Sudoeste 14 Sudoeste 0 -- -- 86
2019-02-09 17:00:00 15.9 8 Sudoeste 18 Sudoeste 0 -- -- 80
2019-02-09 16:00:00 16 10 Sudoeste 21 Sudoeste 0 -- -- 79
2019-02-09 15:00:00 15.6 12 Sudoeste 21 Oeste 0 -- -- 81
2019-02-09 14:00:00 16.5 11 Sudoeste 21 Sudoeste 0 -- -- 77
2019-02-09 13:00:00 16.9 11 Sudoeste 24 Sudoeste 0 -- -- 75
2019-02-09 12:00:00 15.6 11 Sudoeste 20 Sudoeste 0 -- -- 78
2019-02-09 11:00:00 15.8 10 Sudoeste 18 Sudoeste 0 -- -- 78
2019-02-09 10:00:00 13.4 7 Sudoeste 14 Sudoeste 0 -- -- 100
2019-02-09 09:00:00 11.6 0 Calma 7 Sudoeste 0 -- -- 100
2019-02-09 08:00:00 10.1 2 Sudeste 4 Oeste 0 -- -- 100
2019-02-09 07:00:00 9.6 0 Calma 3 Sur 0 -- -- 100
2019-02-09 06:00:00 8.6 0 Calma 8 Sur 0 -- -- 99
2019-02-09 05:00:00 7 3 Sudeste 6 Sur 0 -- -- 99
2019-02-09 04:00:00 6.2 0 Calma 5 Sur 0 -- -- 98
2019-02-09 03:00:00 6.3 0 Calma 5 Sur 0 -- -- 98
2019-02-09 02:00:00 7.3 4 Sur 8 Sur 0 -- -- 98
2019-02-09 01:00:00 6.6 3 Sur 5 Sur 0 -- -- 97
2019-02-09 00:00:00 7.1 3 Sur 4 Sudeste 0 -- -- 97
2019-02-08 23:00:00 7.7 3 Sur 4 Sur 0 -- -- 96
2019-02-08 22:00:00 7.5 0 Calma 2 Sur 0 -- -- 96
2019-02-08 21:00:00 6.8 0 Calma 3 Sudoeste 0 -- -- 94
2019-02-08 20:00:00 7.5 3 Este 4 Este 0 -- -- 89
2019-02-08 19:00:00 10.1 2 Este 9 Oeste 0 -- -- 86
2019-02-08 18:00:00 13.6 6 Sudoeste 18 Sudoeste 0 -- -- 80
2019-02-08 17:00:00 14.6 9 Sudoeste 19 Sudoeste 0 -- -- 76
2019-02-08 16:00:00 14.9 12 Sudoeste 24 Sudoeste 0 -- -- 77
2019-02-08 15:00:00 16.1 10 Sudoeste 28 Sudoeste 0 -- -- 69
2019-02-08 14:00:00 16.2 13 Sudoeste 26 Sudoeste 0 -- -- 68
2019-02-08 13:00:00 16.4 10 Sur 20 Sudeste 0 -- -- 66
2019-02-08 12:00:00 15.9 9 Sur 15 Sur 0 -- -- 69
2019-02-08 11:00:00 13.4 0 Calma 4 Nordeste 0 -- -- 91
2019-02-08 10:00:00 9.8 0 Calma 4 Norte 0 -- -- 99
2019-02-08 09:00:00 5.2 2 Este 3 Este 0 -- -- 100
2019-02-08 08:00:00 2.9 0 Calma 4 Este 0 -- -- 98
2019-02-08 07:00:00 4.3 3 Este 11 Nordeste 0 -- -- 98
2019-02-08 06:00:00 4.4 3 Nordeste 6 Nordeste 0 -- -- 100
2019-02-08 05:00:00 4.1 3 Nordeste 8 Nordeste 0 -- -- 99
2019-02-08 04:00:00 4.8 0 Calma 4 Norte 0 -- -- 97
2019-02-08 03:00:00 6.9 0 Calma 9 Nordeste 0 -- -- 97
2019-02-08 02:00:00 8.5 5 Nordeste 14 Nordeste 0 -- -- 98
2019-02-08 01:00:00 8.2 5 Nordeste 12 Nordeste 0 -- -- 97
2019-02-08 00:00:00 8.4 5 Nordeste 10 Este 0 -- -- 97
2019-02-07 23:00:00 6.8 3 Nordeste 6 Nordeste 0 -- -- 96
2019-02-07 22:00:00 8.1 3 Nordeste 6 Nordeste 0 -- -- 93
2019-02-07 21:00:00 10.1 4 Nordeste 11 Nordeste 0 -- -- 92
2019-02-07 20:00:00 11.8 4 Nordeste 11 Norte 0 -- -- 90
2019-02-07 19:00:00 13.2 4 Este 12 Sudeste 0 -- -- 87
2019-02-07 18:00:00 14.8 4 Sudeste 9 Este 0 -- -- 83
2019-02-07 17:00:00 16.1 7 Sudeste 14 Sudeste 0 -- -- 79
2019-02-07 16:00:00 17.3 9 Este 18 Este 0 -- -- 75
2019-02-07 15:00:00 18.9 5 Norte 9 Oeste 0 -- -- 69
2019-02-07 14:00:00 17.9 4 Noroeste 10 Noroeste 0 -- -- 71
2019-02-07 13:00:00 17.2 4 Noroeste 10 Oeste 0 -- -- 75
2019-02-07 12:00:00 15.6 3 Noroeste 10 Oeste 0 -- -- 86
2019-02-07 11:00:00 14 3 Sudoeste 6 Sudoeste 0 -- -- 99
2019-02-07 10:00:00 12.7 0 Calma 4 Este 0 -- -- 100
2019-02-07 09:00:00 8.1 3 Este 4 Este 0 -- -- 100
2019-02-07 08:00:00 6.6 2 Este 6 Este 0 -- -- 99
2019-02-07 07:00:00 6.7 4 Este 5 Este 0 -- -- 100
2019-02-07 06:00:00 5.4 3 Este 4 Este 0 -- -- 100
2019-02-07 05:00:00 4.7 2 Este -- -- 0 -- -- 99
2019-02-07 04:00:00 4.8 3 Este 4 Este 0 -- -- 98
2019-02-07 03:00:00 5 2 Este 3 Este 0 -- -- 98
2019-02-07 02:00:00 4.5 0 Calma 5 Este 0 -- -- 97
2019-02-07 01:00:00 5.3 3 Este 5 Este 0 -- -- 97
2019-02-07 00:00:00 5.7 3 Este 5 Este 0 -- -- 96
2019-02-06 23:00:00 6 3 Este 4 Este 0 -- -- 96
2019-02-06 22:00:00 6.3 3 Este 4 Este 0 -- -- 95
2019-02-06 21:00:00 7.1 4 Este 5 Este 0 -- -- 94
2019-02-06 20:00:00 8.3 3 Este -- -- 0 -- -- 90
2019-02-06 19:00:00 11.1 3 Sudoeste 11 Sudoeste 0 -- -- 85
2019-02-06 18:00:00 14.4 4 Sudoeste 15 Sudoeste 0 -- -- 83
2019-02-06 17:00:00 16.1 10 Sudoeste 21 Sudoeste 0 -- -- 73
2019-02-06 16:00:00 17.1 12 Sudoeste 22 Sudoeste 0 -- -- 66
2019-02-06 15:00:00 17.1 15 Sudoeste 24 Sudoeste 0 -- -- 64
2019-02-06 14:00:00 17.4 17 Sudoeste 28 Sudoeste 0 -- -- 56
2019-02-06 13:00:00 17.8 14 Sudoeste 22 Oeste 0 -- -- 56
2019-02-06 12:00:00 17.2 10 Sudoeste 19 Oeste 0 -- -- 55
2019-02-06 11:00:00 15.1 6 Oeste 14 Oeste 0 -- -- 78
2019-02-06 10:00:00 11.8 4 Sudoeste 8 Sudoeste 0 -- -- 96
2019-02-06 09:00:00 5.2 0 Calma 5 Este 0 -- -- 100
2019-02-06 08:00:00 1.2 3 Este 6 Este 0 -- -- 98
2019-02-06 07:00:00 0.9 3 Este 6 Este 0 -- -- 97
2019-02-06 06:00:00 1.4 0 Calma 5 Nordeste 0 -- -- 97
2019-02-06 05:00:00 2.1 4 Este 6 Este 0 -- -- 97
2019-02-06 04:00:00 2.5 4 Este 6 Este 0 -- -- 97
2019-02-06 03:00:00 3.3 5 Este 6 Este 0 -- -- 97
2019-02-06 02:00:00 3.3 3 Este 4 Este 0 -- -- 95
2019-02-06 01:00:00 4.3 2 Nordeste 5 Nordeste 0 -- -- 96
2019-02-06 00:00:00 4.3 3 Nordeste 5 Nordeste 0 -- -- 95
2019-02-05 23:00:00 4.3 4 Nordeste 6 Nordeste 0 -- -- 94
2019-02-05 22:00:00 5.1 4 Este 6 Este 0 -- -- 93
2019-02-05 21:00:00 6.2 3 Este 9 Nordeste 0 -- -- 91
2019-02-05 20:00:00 7.6 4 Sudeste 6 Sur 0 -- -- 86
2019-02-05 19:00:00 11 0 Calma 9 Sudoeste 0 -- -- 75
2019-02-05 18:00:00 14.9 6 Sudoeste 14 Sudoeste 0 -- -- 55
2019-02-05 17:00:00 17.1 8 Oeste 17 Sudoeste 0 -- -- 50
2019-02-05 16:00:00 17.2 10 Oeste 20 Oeste 0 -- -- 46
2019-02-05 15:00:00 16.1 11 Oeste 23 Oeste 0 -- -- 45
2019-02-05 14:00:00 16.3 9 Oeste 20 Sudoeste 0 -- -- 51
2019-02-05 13:00:00 14.1 5 Oeste 9 Sudoeste 0 -- -- 63
2019-02-05 12:00:00 12.1 6 Oeste 9 Oeste 0 -- -- 58
2019-02-05 11:00:00 8.1 0 Calma 4 Sudoeste 0 -- -- 91
2019-02-05 10:00:00 4.9 0 Calma 3 Norte 0 -- -- 98
2019-02-05 09:00:00 0.9 2 Este 6 Este 0 -- -- 100
2019-02-05 08:00:00 -0.9 3 Este 6 Este 0 -- -- 99
2019-02-05 07:00:00 -1.8 3 Nordeste 4 Nordeste 0 -- -- 97
2019-02-05 06:00:00 -1.5 3 Este 8 Norte 0 -- -- 97
2019-02-05 05:00:00 -1.6 4 Este 7 Este 0 -- -- 97
2019-02-05 04:00:00 -1.1 0 Calma 4 Nordeste 0 -- -- 96
2019-02-05 03:00:00 -0.6 3 Este 5 Este 0 -- -- 96
2019-02-05 02:00:00 -0.7 4 Este 6 Este 0 -- -- 95
2019-02-05 01:00:00 -1.6 4 Este 5 Este 0 -- -- 95
2019-02-05 00:00:00 -1.1 0 Calma 5 Este 0 -- -- 93
2019-02-04 23:00:00 0 0 Calma 6 Este 0 -- -- 93
2019-02-04 22:00:00 0.5 4 Este 5 Este 0 -- -- 92
2019-02-04 21:00:00 0.8 3 Este 4 Este 0 -- -- 87
2019-02-04 20:00:00 2.8 0 Calma 6 Este 0 -- -- 81
2019-02-04 19:00:00 6 3 Nordeste 8 Nordeste 0 -- -- 72
2019-02-04 18:00:00 10.6 4 Nordeste 16 Nordeste 0 -- -- 59
2019-02-04 17:00:00 13.4 8 Norte 18 Norte 0 -- -- 47
2019-02-04 16:00:00 14.6 9 Nordeste 19 Nordeste 0 -- -- 44
2019-02-04 15:00:00 15.1 6 Oeste 18 Oeste 0 -- -- 46
2019-02-04 14:00:00 13.9 10 Oeste 24 Sudoeste 0 -- -- 48
2019-02-04 13:00:00 13.9 11 Oeste 22 Oeste 0 -- -- 44
2019-02-04 12:00:00 13 10 Oeste 19 Oeste 0 -- -- 48
2019-02-04 11:00:00 10.1 4 Noroeste 7 Noroeste 0 -- -- 70
2019-02-04 10:00:00 5.8 2 Oeste 6 Oeste 0 -- -- 86
2019-02-04 09:00:00 1.2 3 Este 6 Este 0 -- -- 99
2019-02-04 08:00:00 -1.5 4 Este 5 Este 0 -- -- 96
2019-02-04 07:00:00 -1.7 2 Este 4 Nordeste 0 -- -- 96
2019-02-04 06:00:00 -1.7 2 Este 9 Nordeste 0 -- -- 95
2019-02-04 05:00:00 -1.2 3 Nordeste 14 Este 0 -- -- 94
2019-02-04 04:00:00 -1.4 3 Sudeste 7 Este 0 -- -- 94
2019-02-04 03:00:00 -0.8 2 Sudeste 8 Este 0 -- -- 93
2019-02-04 02:00:00 -0.1 5 Este 12 Este 0 -- -- 94
2019-02-04 01:00:00 -0.3 3 Sudeste 6 Este 0 -- -- 93
2019-02-04 00:00:00 -0.6 4 Este 6 Este 0 -- -- 92
2019-02-03 23:00:00 0.2 4 Este 9 Este 0 -- -- 92
2019-02-03 22:00:00 0.2 4 Este 7 Este 0 -- -- 91
2019-02-03 21:00:00 0.9 3 Este 6 Nordeste 0 -- -- 90
2019-02-03 20:00:00 2.5 0 Calma 4 Sudoeste 0 -- -- 87
2019-02-03 19:00:00 5.3 2 Sudoeste 8 Sudoeste 0 -- -- 81
2019-02-03 18:00:00 8 4 Oeste 14 Oeste 0 -- -- 76
2019-02-03 17:00:00 8.4 9 Oeste 14 Oeste 0 -- -- 75
2019-02-03 16:00:00 8.7 4 Oeste 15 Noroeste 0 -- -- 75
2019-02-03 15:00:00 8.9 5 Nordeste 19 Este 0 -- -- 66
2019-02-03 14:00:00 8.8 11 Este 25 Nordeste 0 -- -- 74
2019-02-03 13:00:00 13.3 7 Nordeste 19 Nordeste 0 -- -- 48
2019-02-03 12:00:00 13.3 5 Norte 19 Oeste 0 -- -- 49
2019-02-03 11:00:00 11.5 10 Noroeste 18 Noroeste 0 -- -- 52
2019-02-03 10:00:00 8.3 3 Noroeste 5 Oeste 0 -- -- 81
2019-02-03 09:00:00 3.7 0 Calma 5 Este 0 -- -- 98
2019-02-03 08:00:00 1.9 3 Oeste 6 Oeste 0 -- -- 95
2019-02-03 07:00:00 2.6 0 Calma 8 Este 0 -- -- 95
2019-02-03 06:00:00 2.5 0 Calma 8 Este 0 -- -- 95
2019-02-03 05:00:00 1.6 2 Este 6 Sudeste 0 -- -- 92
2019-02-03 04:00:00 2.6 0 Calma 12 Este 0 -- -- 91
2019-02-03 03:00:00 1.9 6 Oeste 8 Oeste 0 -- -- 91
2019-02-03 02:00:00 2.9 3 Sur 13 Noroeste 0 -- -- 87
2019-02-03 01:00:00 3 4 Noroeste 8 Noroeste 0 -- -- 87
2019-02-03 00:00:00 4.8 3 Noroeste 9 Oeste 0 -- -- 83
2019-02-02 23:00:00 6.3 3 Sudoeste 14 Noroeste 0 -- -- 80
2019-02-02 22:00:00 8.2 7 Oeste 29 Noroeste 0 -- -- 72
2019-02-02 21:00:00 9.6 11 Oeste 29 Oeste 0 -- -- 67
2019-02-02 20:00:00 9.7 9 Oeste 23 Oeste 0 -- -- 70
2019-02-02 19:00:00 10.3 12 Oeste 32 Noroeste 0 -- -- 69
2019-02-02 18:00:00 10.3 16 Oeste 30 Oeste 0 -- -- 69
2019-02-02 17:00:00 11.4 15 Oeste 37 Oeste 0 -- -- 67
2019-02-02 16:00:00 10.6 24 Oeste 42 Noroeste 0 -- -- 72
2019-02-02 15:00:00 11 10 Oeste 51 Oeste 0.2 -- -- 76
2019-02-02 14:00:00 11.5 8 Noroeste 44 Oeste 0.2 -- -- 74
2019-02-02 13:00:00 13 13 Noroeste 32 Oeste 0 -- -- 57
2019-02-02 12:00:00 14 18 Oeste 35 Oeste 0 -- -- 52
2019-02-02 11:00:00 10.9 11 Oeste 30 Oeste 0 -- -- 70
2019-02-02 10:00:00 12.1 19 Oeste 45 Oeste 0 -- -- 57
2019-02-02 09:00:00 11.7 16 Oeste 42 Oeste 0 -- -- 67
2019-02-02 08:00:00 10.8 21 Oeste 45 Oeste 0 -- -- 68
2019-02-02 07:00:00 10.8 19 Oeste 47 Oeste 0 -- -- 69
2019-02-02 06:00:00 11 22 Oeste 49 Oeste 0 -- -- 67
2019-02-02 05:00:00 11.2 23 Oeste 49 Sudoeste 0 -- -- 66
2019-02-02 04:00:00 11 23 Oeste 44 Oeste 0 -- -- 65
2019-02-02 03:00:00 11 18 Oeste 49 Oeste 0 -- -- 65
2019-02-02 02:00:00 11.7 24 Oeste 49 Oeste 0 -- -- 66
2019-02-02 01:00:00 12.4 19 Oeste 43 Sudoeste 0 -- -- 70
2019-02-02 00:00:00 12.8 14 Sudoeste 27 Sudoeste 0 -- -- 90
2019-02-01 23:00:00 13 9 Sudoeste 22 Sudoeste 0 -- -- 93
2019-02-01 22:00:00 12.1 9 Sudoeste 20 Sudoeste 0 -- -- 85
2019-02-01 21:00:00 12.1 11 Oeste 21 Oeste 0 -- -- 76
2019-02-01 20:00:00 12.3 9 Oeste 30 Sudoeste 0 -- -- 77
2019-02-01 19:00:00 13.2 14 Sudoeste 27 Sudoeste 0 -- -- 94
2019-02-01 18:00:00 13.6 14 Sudoeste 37 Sudoeste -- -- -- 90
2019-02-01 17:00:00 14.7 16 Sudoeste 35 Sudoeste 0 -- -- 91
2019-02-01 16:00:00 16.3 22 Sudoeste 39 Sudoeste 0 -- -- 86
2019-02-01 15:00:00 15.1 22 Sudoeste 49 Oeste 0 -- -- 89
2019-02-01 14:00:00 15.1 21 Sudoeste 46 Sudoeste 0 -- -- 88
2019-02-01 13:00:00 15 26 Sudoeste 49 Sudoeste 0 -- -- 88
2019-02-01 12:00:00 14.3 26 Sudoeste 53 Sudoeste 0.6 -- -- 93
2019-02-01 11:00:00 14.1 25 Sudoeste 48 Sudoeste 0.8 -- -- 94
2019-02-01 10:00:00 14 24 Sudoeste 48 Sudoeste 0.6 -- -- 93
2019-02-01 09:00:00 14.7 26 Sudoeste 50 Sudoeste 0 -- -- 88
2019-02-01 08:00:00 14.6 26 Sudoeste 52 Sudoeste 0 -- -- 88
2019-02-01 07:00:00 14.5 23 Sudoeste 47 Sudoeste 0 -- -- 90
2019-02-01 06:00:00 14.5 18 Sudoeste 43 Sudoeste 0 -- -- 90
2019-02-01 05:00:00 14.1 26 Sudoeste 46 Sudoeste 0 -- -- 92
2019-02-01 04:00:00 14.3 18 Sudoeste 35 Sur 0 -- -- 91
2019-02-01 03:00:00 14.2 16 Sudoeste 33 Sudoeste 0 -- -- 90
2019-02-01 02:00:00 14.3 16 Sudoeste 33 Sudoeste 0 -- -- 90
2019-02-01 01:00:00 14.3 17 Sudoeste 32 Sudoeste 0 -- -- 93
2019-02-01 00:00:00 14.1 13 Sudoeste 27 Sudoeste 0 -- -- 94
2019-01-31 23:00:00 13.9 10 Sudoeste 22 Sudoeste 0 -- -- 94
2019-01-31 22:00:00 13.7 7 Sudoeste 20 Sudoeste 0 -- -- 94
2019-01-31 21:00:00 14 14 Sudoeste 26 Sudoeste 0 -- -- 93
2019-01-31 20:00:00 14.2 14 Sudoeste 28 Oeste 0 -- -- 90
2019-01-31 19:00:00 14.4 15 Sudoeste 36 Sudoeste 0 -- -- 88
2019-01-31 18:00:00 14.8 18 Sudoeste 34 Sudoeste 0 -- -- 86
2019-01-31 17:00:00 16.3 21 Sudoeste 42 Sudoeste 0 -- -- 80
2019-01-31 16:00:00 17.4 23 Sudoeste 49 Sudoeste 0 -- -- 71
2019-01-31 15:00:00 17.4 30 Sudoeste 50 Sudoeste 0 -- -- 71
2019-01-31 14:00:00 17 23 Oeste 42 Oeste 0 -- -- 72
2019-01-31 13:00:00 17.6 17 Sudoeste 41 Oeste 0 -- -- 70
2019-01-31 12:00:00 17.5 22 Sudoeste 40 Oeste 0 -- -- 71
2019-01-31 11:00:00 16.8 22 Sudoeste 43 Sudoeste 0 -- -- 70
2019-01-31 10:00:00 15.8 19 Sudoeste 39 Sudoeste 0 -- -- 72
2019-01-31 09:00:00 14.5 18 Sudoeste 33 Sudoeste 0 -- -- 74
2019-01-31 08:00:00 13.7 17 Sudoeste 39 Sudoeste 0 -- -- 73
2019-01-31 07:00:00 13.6 18 Sudoeste 33 Sudoeste 0 -- -- 74
2019-01-31 06:00:00 13.3 14 Sudoeste 32 Sudoeste 0 -- -- 74
2019-01-31 05:00:00 13 14 Oeste 33 Sudoeste 0 -- -- 65
2019-01-31 04:00:00 12.5 13 Oeste 30 Sudoeste 0 -- -- 61
2019-01-31 03:00:00 12.7 17 Sudoeste 31 Sudoeste 0 -- -- 59
2019-01-31 02:00:00 12.4 17 Sudoeste 30 Sudoeste 0 -- -- 74
2019-01-31 01:00:00 10.4 10 Sudoeste 18 Sudoeste 0 -- -- 93
2019-01-31 00:00:00 2.3 0 Calma 3 Sur 0 -- -- 94
2019-01-30 23:00:00 2.8 3 Este 5 Este 0 -- -- 93
2019-01-30 22:00:00 2.5 4 Este 5 Este 0 -- -- 91
2019-01-30 21:00:00 3.2 3 Este 5 Este 0 -- -- 87
2019-01-30 20:00:00 4.6 2 Sur 6 Sur 0 -- -- 84
2019-01-30 19:00:00 6.8 3 Sur 5 Sur 0.6 -- -- 73
2019-01-30 18:00:00 11.7 3 Sudoeste 22 Oeste 0 -- -- 56
2019-01-30 17:00:00 14.4 10 Oeste 25 Oeste 0.2 -- -- 46
2019-01-30 16:00:00 13.6 12 Oeste 34 Oeste 0 -- -- 50
2019-01-30 15:00:00 15.1 16 Oeste 40 Noroeste 0 -- -- 45
2019-01-30 14:00:00 14 19 Noroeste 38 Oeste 0 -- -- 45
2019-01-30 13:00:00 14.8 18 Noroeste 39 Noroeste 0 -- -- 47
2019-01-30 12:00:00 14.3 17 Noroeste 31 Oeste 0.2 -- -- 50
2019-01-30 11:00:00 12.1 11 Oeste 23 Noroeste 0 -- -- 60
2019-01-30 10:00:00 10.4 8 Noroeste 17 Norte 0 -- -- 61
2019-01-30 09:00:00 9.4 5 Este 27 Oeste 0 -- -- 63
2019-01-30 08:00:00 9.1 6 Oeste 29 Oeste 0 -- -- 66
2019-01-30 07:00:00 9.8 9 Oeste 29 Oeste 0.2 -- -- 64
2019-01-30 06:00:00 10.3 11 Oeste 33 Oeste 0 -- -- 63
2019-01-30 05:00:00 10.6 16 Oeste 42 Oeste 0 -- -- 61
2019-01-30 04:00:00 11.1 24 Oeste 46 Noroeste 0 -- -- 58
2019-01-30 03:00:00 10.9 19 Noroeste 41 Oeste 0 -- -- 63
2019-01-30 02:00:00 10.8 12 Oeste 40 Oeste -- -- -- 67
2019-01-30 01:00:00 10.7 9 Oeste 22 Oeste 0 -- -- 71
2019-01-30 00:00:00 11.5 4 Noroeste 27 Oeste 0 -- -- 83
2019-01-29 23:00:00 11.7 12 Oeste 19 Oeste 0 -- -- 87
2019-01-29 22:00:00 10.8 5 Sudoeste 17 Sudoeste 0.2 -- -- 86
2019-01-29 21:00:00 10 8 Sudoeste 13 Oeste 0 -- -- 88
2019-01-29 20:00:00 9.3 3 Sudoeste 10 Sudoeste 0 -- -- 82
2019-01-29 19:00:00 10.4 7 Sudoeste 15 Oeste 0 -- -- 78
2019-01-29 18:00:00 11.4 10 Sudoeste 19 Oeste 0.2 -- -- 76
2019-01-29 17:00:00 11.7 7 Sudoeste 15 Oeste 0 -- -- 72
2019-01-29 16:00:00 12.1 7 Oeste 20 Oeste 0 -- -- 66
2019-01-29 15:00:00 12.9 13 Oeste 24 Oeste 0 -- -- 61
2019-01-29 14:00:00 12.3 7 Oeste 14 Sudoeste 0.2 -- -- 71
2019-01-29 13:00:00 11.7 4 Oeste 9 Noroeste 0 -- -- 75
2019-01-29 12:00:00 11.2 2 Sudoeste 5 Sudoeste 0.2 -- -- 80
2019-01-29 11:00:00 10 3 Sudoeste 6 Noroeste 0.2 -- -- 93
2019-01-29 10:00:00 7.8 3 Nordeste 6 Este 0.2 -- -- 100
2019-01-29 09:00:00 3.8 0 Calma 5 Este 0.2 -- -- 100
2019-01-29 08:00:00 1.2 0 Calma 6 Sudeste 0.2 -- -- 98
2019-01-29 07:00:00 1.9 6 Este 9 Nordeste 0.2 -- -- 99
2019-01-29 06:00:00 1.9 2 Nordeste 4 Nordeste 0 -- -- 98
2019-01-29 05:00:00 2.5 0 Calma 6 Sudeste -- -- -- 97
2019-01-29 04:00:00 3.1 0 Calma 8 Este -- -- -- 97
2019-01-29 03:00:00 3.7 4 Nordeste 6 Nordeste 0 -- -- 98
2019-01-29 02:00:00 3.9 4 Nordeste 5 Nordeste -- -- -- 97
2019-01-29 01:00:00 4.5 3 Este 5 Este 0.2 -- -- 95
2019-01-29 00:00:00 6.2 0 Calma 6 Este 0.2 -- -- 94
2019-01-28 23:00:00 8.4 0 Calma 8 Nordeste 0.2 -- -- 95
2019-01-28 22:00:00 8.7 4 Nordeste 9 Nordeste 0.4 -- -- 94
2019-01-28 21:00:00 9.2 5 Nordeste 16 Noroeste 0.2 -- -- 90
2019-01-28 20:00:00 10.4 4 Sudoeste 11 Noroeste 0 -- -- 79
2019-01-28 19:00:00 11.9 7 Noroeste 30 Noroeste 0 -- -- 72
2019-01-28 18:00:00 13.4 15 Noroeste 37 Noroeste 0 -- -- 57
2019-01-28 17:00:00 13.9 26 Noroeste 55 Oeste 0 -- -- 57
2019-01-28 16:00:00 14.3 26 Noroeste 56 Noroeste 0 -- -- 55
2019-01-28 15:00:00 15.2 28 Oeste 55 Oeste 0 -- -- 56
2019-01-28 14:00:00 14.6 24 Oeste 50 Oeste 0 -- -- 56
2019-01-28 13:00:00 13.8 22 Oeste 46 Oeste 0 -- -- 56
2019-01-28 12:00:00 15 24 Oeste 45 Oeste 0 -- -- 52
2019-01-28 11:00:00 14.2 18 Oeste 35 Oeste 0 -- -- 54
2019-01-28 10:00:00 12 17 Oeste 38 Oeste 0 -- -- 64
2019-01-28 09:00:00 8.6 6 Oeste 17 Oeste 0 -- -- 74
2019-01-28 08:00:00 7.5 4 Oeste 20 Noroeste 0 -- -- 80
2019-01-28 07:00:00 5.3 0 Calma 17 Oeste 0 -- -- 83
2019-01-28 06:00:00 6 5 Oeste 10 Oeste 0 -- -- 79
2019-01-28 05:00:00 8.8 5 Oeste 16 Noroeste 0 -- -- 69
2019-01-28 04:00:00 8.3 5 Oeste 11 Oeste 0 -- -- 73
2019-01-28 03:00:00 8.7 5 Oeste 14 Oeste 0 -- -- 71
2019-01-28 02:00:00 8.4 5 Sudoeste 16 Oeste 0 -- -- 70
2019-01-28 01:00:00 9 7 Oeste 25 Oeste 0 -- -- 66
2019-01-28 00:00:00 9.9 8 Noroeste 28 Noroeste 0 -- -- 60
2019-01-27 23:00:00 10.7 10 Noroeste 44 Noroeste 0 -- -- 58
2019-01-27 22:00:00 11.1 16 Noroeste 41 Noroeste 0 -- -- 55
2019-01-27 21:00:00 11.9 27 Noroeste 48 Noroeste 0 -- -- 52
2019-01-27 20:00:00 12.3 18 Noroeste 34 Noroeste 0 -- -- 53
2019-01-27 19:00:00 12.6 17 Oeste 38 Noroeste 0 -- -- 54
2019-01-27 18:00:00 13.5 26 Noroeste 49 Oeste 0 -- -- 50
2019-01-27 17:00:00 15.1 29 Noroeste 57 Oeste 0 -- -- 45
2019-01-27 16:00:00 16.6 25 Noroeste 52 Noroeste 0 -- -- 43
2019-01-27 15:00:00 18 21 Noroeste 40 Noroeste 0 -- -- 44
2019-01-27 14:00:00 18.3 20 Noroeste 39 Noroeste 0 -- -- 49
2019-01-27 13:00:00 18.6 15 Oeste 26 Noroeste 0 -- -- 51
2019-01-27 12:00:00 17.4 9 Oeste 20 Oeste 0 -- -- 65
2019-01-27 11:00:00 14.9 11 Oeste 22 Sudoeste 0 -- -- 84
2019-01-27 10:00:00 11.7 6 Oeste 10 Oeste 0 -- -- 100
2019-01-27 09:00:00 7 0 Calma 5 Oeste 0 -- -- 100
2019-01-27 08:00:00 5.5 2 Este 5 Este 0 -- -- 97
2019-01-27 07:00:00 6.1 3 Este 4 Este 0 -- -- 97
2019-01-27 06:00:00 7.9 2 Este 5 Sudoeste 0 -- -- 96
2019-01-27 05:00:00 11.3 4 Sudoeste 11 Sudoeste 0 -- -- 97
2019-01-27 04:00:00 12.3 8 Sudoeste 17 Sudoeste 0 -- -- 97
2019-01-27 03:00:00 12.9 9 Sudoeste 23 Sudoeste 0 -- -- 97
2019-01-27 02:00:00 12.8 13 Sudoeste 26 Sudoeste 0 -- -- 97
2019-01-27 01:00:00 11.7 13 Sudoeste 28 Sudoeste 0 -- -- 99
2019-01-27 00:00:00 4.6 2 Sudoeste 6 Sudoeste 0 -- -- 96
2019-01-26 23:00:00 5.7 0 Calma 4 Sudeste 0 -- -- 95
2019-01-26 22:00:00 8.3 2 Sur 6 Sur 0 -- -- 96
2019-01-26 21:00:00 9.6 4 Sur 8 Sudoeste 0 -- -- 95
2019-01-26 20:00:00 10 3 Sudoeste 10 Sudoeste 0 -- -- 93
2019-01-26 19:00:00 10.6 3 Sur 7 Sudoeste 0 -- -- 88
2019-01-26 18:00:00 13.1 6 Sudoeste 21 Sudoeste 0 -- -- 81
2019-01-26 17:00:00 15.3 12 Oeste 29 Sudoeste 0 -- -- 73
2019-01-26 16:00:00 16.1 17 Oeste 31 Oeste 0 -- -- 67
2019-01-26 15:00:00 17.3 19 Oeste 32 Sudoeste 0 -- -- 55
2019-01-26 14:00:00 17.6 11 Oeste 25 Sudoeste 0 -- -- 61
2019-01-26 13:00:00 16.6 14 Sudoeste 27 Sudoeste 0 -- -- 69
2019-01-26 12:00:00 16.2 10 Sudoeste 18 Sudoeste 0 -- -- 70
2019-01-26 11:00:00 13.7 4 Oeste 9 Sudoeste 0 -- -- 85
2019-01-26 10:00:00 9.5 2 Oeste 4 Este 0 -- -- 99
2019-01-26 09:00:00 4.2 4 Este 6 Este 0 -- -- 100
2019-01-26 08:00:00 1.9 0 Calma 9 Nordeste 0 -- -- 98
2019-01-26 07:00:00 2.2 4 Este 9 Este 0 -- -- 99
2019-01-26 06:00:00 1.9 0 Calma 16 Oeste 0 -- -- 97
2019-01-26 05:00:00 3.1 7 Este 10 Este 0 -- -- 99
2019-01-26 04:00:00 2.5 0 Calma 8 Este 0 -- -- 96
2019-01-26 03:00:00 2.8 4 Este 6 Este 0 -- -- 96
2019-01-26 02:00:00 4 3 Este 8 Nordeste 0 -- -- 96
2019-01-26 01:00:00 4 4 Este 9 Este 0 -- -- 95
2019-01-26 00:00:00 4.3 3 Este 5 Este 0 -- -- 93
2019-01-25 23:00:00 5.8 3 Este 5 Este 0 -- -- 92
2019-01-25 22:00:00 5.7 3 Este 5 Este 0 -- -- 90
2019-01-25 21:00:00 6.3 0 Calma 3 Oeste 0 -- -- 84
2019-01-25 20:00:00 8.2 3 Sudoeste 4 Sudoeste 0 -- -- 77
2019-01-25 19:00:00 9.2 2 Sur 6 Sudoeste 0 -- -- 69
2019-01-25 18:00:00 11.2 4 Sudoeste 12 Sur 0 -- -- 58
2019-01-25 17:00:00 12.5 6 Sudoeste 17 Sudoeste 0 -- -- 53
2019-01-25 16:00:00 15.1 3 Sudoeste 18 Nordeste 0 -- -- 47
2019-01-25 15:00:00 14.5 9 Nordeste 23 Nordeste 0 -- -- 49
2019-01-25 14:00:00 15 12 Nordeste 28 Norte 0 -- -- 45
2019-01-25 13:00:00 15.2 9 Norte 19 Noroeste 0 -- -- 35
2019-01-25 12:00:00 13.7 10 Oeste 19 Noroeste 0 -- -- 44
2019-01-25 11:00:00 8.9 2 Oeste 8 Noroeste 0 -- -- 77
2019-01-25 10:00:00 6.8 0 Calma 5 Sudeste 0 -- -- 88
2019-01-25 09:00:00 -0.2 2 Este 7 Este 0 -- -- 98
2019-01-25 08:00:00 -2.8 4 Este 5 Este 0 -- -- 96
2019-01-25 07:00:00 -2.6 0 Calma 3 Este 0 -- -- 95
2019-01-25 06:00:00 -1.1 2 Nordeste 8 Nordeste 0 -- -- 95
2019-01-25 05:00:00 -0.8 5 Este 8 Este 0 -- -- 96
2019-01-25 04:00:00 -1.4 4 Este 6 Este 0 -- -- 95
2019-01-25 03:00:00 -1.7 4 Este 5 Este 0 -- -- 94
2019-01-25 02:00:00 -1.2 0 Calma 8 Oeste 0 -- -- 93
2019-01-25 01:00:00 -0.3 2 Este 5 Este 0 -- -- 91
2019-01-25 00:00:00 0.9 2 Este 4 Nordeste 0 -- -- 88
2019-01-24 23:00:00 2.8 0 Calma 5 Norte 0 -- -- 87
2019-01-24 22:00:00 4 2 Este 8 Noroeste 0 -- -- 78
2019-01-24 21:00:00 6.9 7 Norte 17 Nordeste 0 -- -- 68
2019-01-24 20:00:00 5.7 4 Nordeste 13 Nordeste 0 -- -- 76
2019-01-24 19:00:00 5.1 3 Norte 14 Nordeste 0 -- -- 74
2019-01-24 18:00:00 8.8 4 Nordeste 25 Nordeste 0 -- -- 55
2019-01-24 17:00:00 11.3 11 Nordeste 30 Noroeste 0 -- -- 46
2019-01-24 16:00:00 12.4 14 Norte 35 Norte 0 -- -- 39
2019-01-24 15:00:00 12.7 9 Norte 28 Norte 0 -- -- 45
2019-01-24 14:00:00 13 16 Norte 38 Norte 0 -- -- 48
2019-01-24 13:00:00 11.8 16 Norte 40 Norte 0 -- -- 43
2019-01-24 12:00:00 12.1 17 Noroeste 40 Noroeste 0 -- -- 43
2019-01-24 11:00:00 10.1 13 Noroeste 33 Noroeste 0 -- -- 47
2019-01-24 10:00:00 9.6 12 Noroeste 31 Noroeste 0 -- -- 49
2019-01-24 09:00:00 7.7 13 Noroeste 33 Norte 0 -- -- 49
2019-01-24 08:00:00 7.2 19 Noroeste 39 Noroeste 0 -- -- 48
2019-01-24 07:00:00 6.3 12 Noroeste 37 Noroeste 0 -- -- 58
2019-01-24 06:00:00 5.5 12 Noroeste 27 Noroeste 0 -- -- 72
2019-01-24 05:00:00 3.8 5 Noroeste 11 Noroeste 0 -- -- 89
2019-01-24 04:00:00 5.3 3 Oeste 10 Noroeste 0 -- -- 91
2019-01-24 03:00:00 6.5 5 Noroeste 24 Noroeste 0.4 -- -- 92
2019-01-24 02:00:00 6.7 4 Norte 28 Norte 0.2 -- -- 91
2019-01-24 01:00:00 7.4 0 Calma 16 Nordeste 0 -- -- 88
2019-01-24 00:00:00 7.9 5 Este 21 Nordeste 0 -- -- 86
2019-01-23 23:00:00 9.8 7 Nordeste 21 Norte 0 -- -- 75
2019-01-23 22:00:00 10.3 8 Noroeste 27 Noroeste 0 -- -- 63
2019-01-23 21:00:00 11.1 3 Noroeste 30 Noroeste 0 -- -- 63
2019-01-23 20:00:00 11.9 8 Noroeste 45 Noroeste 0 -- -- 65
2019-01-23 19:00:00 12.5 18 Noroeste 31 Noroeste 0 -- -- 63
2019-01-23 18:00:00 12.7 15 Oeste 39 Noroeste 0 -- -- 65
2019-01-23 17:00:00 13.4 13 Noroeste 42 Noroeste 0 -- -- 68
2019-01-23 16:00:00 14.8 23 Oeste 52 Noroeste 0 -- -- 62
2019-01-23 15:00:00 14.2 23 Oeste 48 Noroeste 0 -- -- 68
2019-01-23 14:00:00 12.3 15 Oeste 31 Oeste 0 -- -- 79
2019-01-23 13:00:00 10.9 2 Oeste 10 Sudoeste 0.2 -- -- 88
2019-01-23 12:00:00 10.1 5 Oeste 33 Oeste 0.6 -- -- 89
2019-01-23 11:00:00 11.2 14 Oeste 26 Oeste 0 -- -- 78
2019-01-23 10:00:00 8.7 0 Calma 5 Sudeste 0 -- -- 87
2019-01-23 09:00:00 7.4 0 Calma 8 Sudoeste 0 -- -- 87
2019-01-23 08:00:00 7.1 3 Sur 14 Oeste 0 -- -- 81
2019-01-23 07:00:00 7.3 7 Oeste 19 Noroeste 0 -- -- 82
2019-01-23 06:00:00 6.9 8 Oeste 16 Oeste 0 -- -- 82
2019-01-23 05:00:00 7.2 6 Oeste 21 Oeste 0 -- -- 82
2019-01-23 04:00:00 6.2 7 Oeste 14 Oeste 0 -- -- 89
2019-01-23 03:00:00 6.1 5 Noroeste 12 Oeste 0 -- -- 88
2019-01-23 02:00:00 7.7 6 Noroeste 21 Noroeste 0 -- -- 86
2019-01-23 01:00:00 6.2 6 Oeste 14 Oeste 0 -- -- 97
2019-01-23 00:00:00 5.3 2 Este 4 Este 0 -- -- 95
2019-01-22 23:00:00 5.3 0 Calma 3 Sudeste 0 -- -- 95
2019-01-22 22:00:00 4.3 2 Este 2 Este 0 -- -- 94
2019-01-22 21:00:00 3.9 0 Calma 4 Este 0 -- -- 90
2019-01-22 20:00:00 5.4 2 Sudoeste 6 Oeste 0 -- -- 86
2019-01-22 19:00:00 6.7 2 Sudoeste 8 Oeste 0 -- -- 79
2019-01-22 18:00:00 8.5 4 Oeste 14 Oeste 0 -- -- 70
2019-01-22 17:00:00 9.9 8 Oeste 30 Oeste 0 -- -- 62
2019-01-22 16:00:00 11.1 13 Oeste 31 Oeste 0 -- -- 56
2019-01-22 15:00:00 11.2 12 Oeste 33 Sudoeste 0 -- -- 61
2019-01-22 14:00:00 13.1 17 Oeste 28 Sudoeste 0 -- -- 52
2019-01-22 13:00:00 13.1 12 Oeste 23 Sudoeste 0 -- -- 55
2019-01-22 12:00:00 12 12 Oeste 22 Noroeste 0 -- -- 61
2019-01-22 11:00:00 10.2 4 Noroeste 7 Noroeste 0 -- -- 85
2019-01-22 10:00:00 7 2 Sudoeste 4 Este 0 -- -- 100
2019-01-22 09:00:00 2 3 Este 6 Este 0 -- -- 100
2019-01-22 08:00:00 0 3 Este 6 Este 0 -- -- 99
2019-01-22 07:00:00 0 3 Este 5 Este 0 -- -- 99
2019-01-22 06:00:00 1.1 2 Este 6 Este 0 -- -- 98
2019-01-22 05:00:00 2.3 3 Este 5 Este 0 -- -- 99
2019-01-22 04:00:00 2.7 0 Calma 3 Este 0 -- -- 99
2019-01-22 03:00:00 3.1 2 Este 5 Sudeste 0.2 -- -- 98
2019-01-22 02:00:00 2.4 3 Sudeste 14 Oeste 0 -- -- 99
2019-01-22 01:00:00 0.3 2 Nordeste 4 Nordeste 0 -- -- 97
2019-01-22 00:00:00 0.5 2 Este 5 Nordeste 0 -- -- 97
2019-01-21 23:00:00 0.8 3 Este 4 Este 0 -- -- 96
2019-01-21 22:00:00 1.7 2 Norte 5 Norte 0 -- -- 95
2019-01-21 21:00:00 2.3 2 Norte 4 Nordeste 0 -- -- 93
2019-01-21 20:00:00 3.8 2 Nordeste 5 Este 0 -- -- 92
2019-01-21 19:00:00 5.8 0 Calma 17 Nordeste 0 -- -- 88
2019-01-21 18:00:00 8 8 Nordeste 32 Norte 0.2 -- -- 85
2019-01-21 17:00:00 10.8 9 Norte 31 Norte 0 -- -- 69
2019-01-21 16:00:00 12.8 11 Norte 37 Norte 0 -- -- 61
2019-01-21 15:00:00 13.4 15 Norte 40 Nordeste 0 -- -- 57
2019-01-21 14:00:00 13.4 16 Norte 36 Norte 0 -- -- 62
2019-01-21 13:00:00 13.2 15 Norte 37 Norte 0 -- -- 62
2019-01-21 12:00:00 11.5 16 Norte 37 Norte 0 -- -- 70
2019-01-21 11:00:00 11.7 13 Norte 27 Norte 0 -- -- 79
2019-01-21 10:00:00 9.7 4 Noroeste 10 Noroeste 0 -- -- 97
2019-01-21 09:00:00 7.9 3 Noroeste 20 Nordeste 0.2 -- -- 96
2019-01-21 08:00:00 7.9 9 Norte 23 Norte 2.2 -- -- 97
2019-01-21 07:00:00 8.2 6 Norte 27 Norte 0.4 -- -- 97
2019-01-21 06:00:00 8.1 4 Noroeste 15 Norte 0.2 -- -- 96
2019-01-21 05:00:00 8.6 5 Norte 16 Norte 1 -- -- 95
2019-01-21 04:00:00 8.3 2 Noroeste 16 Norte 0 -- -- 93
2019-01-21 03:00:00 8.9 8 Norte 25 Norte 0 -- -- 92
2019-01-21 02:00:00 9.4 14 Norte 30 Nordeste 0.2 -- -- 93
2019-01-21 01:00:00 9.2 10 Norte 36 Nordeste 0 -- -- 95
2019-01-21 00:00:00 9 14 Norte 40 Norte 0.4 -- -- 94
2019-01-20 23:00:00 9.3 18 Norte 42 Norte 0 -- -- 95
2019-01-20 22:00:00 8.9 14 Norte 44 Norte 0.2 -- -- 95
2019-01-20 21:00:00 9.2 19 Norte 42 Norte 0.2 -- -- 94
2019-01-20 20:00:00 9.8 20 Norte 39 Norte 0 -- -- 93
2019-01-20 19:00:00 9 0 Calma 6 Oeste 0 -- -- 89
2019-01-20 18:00:00 11.3 4 Oeste 19 Noroeste 0 -- -- 81
2019-01-20 17:00:00 14.7 9 Oeste 18 Noroeste 0 -- -- 71
2019-01-20 16:00:00 14.1 4 Norte 14 Noroeste 0 -- -- 74
2019-01-20 15:00:00 13.5 3 Norte 15 Noroeste 0 -- -- 83
2019-01-20 14:00:00 13.3 9 Norte 15 Norte 0 -- -- 83
2019-01-20 13:00:00 13.1 8 Noroeste 16 Oeste 0 -- -- 83
2019-01-20 12:00:00 14.1 4 Noroeste 13 Noroeste 0 -- -- 85
2019-01-20 11:00:00 12.6 0 Calma 4 Noroeste 0 -- -- 96
2019-01-20 10:00:00 11.4 2 Este 4 Este 0 -- -- 99
2019-01-20 09:00:00 9.7 0 Calma 6 Este 1 -- -- 97
2019-01-20 08:00:00 9.9 4 Este 11 Este 0.4 -- -- 97
2019-01-20 07:00:00 8.9 5 Sudeste 8 Sudeste 0 -- -- 97
2019-01-20 06:00:00 8.6 5 Sudeste 8 Sudeste 0 -- -- 99
2019-01-20 05:00:00 6.7 5 Sudeste 8 Sudeste 0 -- -- 100
2019-01-20 04:00:00 5.5 2 Sudeste 5 Este 0 -- -- 99
2019-01-20 03:00:00 4.8 3 Este 4 Este 0 -- -- 99
2019-01-20 02:00:00 4.2 3 Este 5 Este 0 -- -- 98
2019-01-20 01:00:00 2.6 3 Este 5 Este 0 -- -- 98
2019-01-20 00:00:00 2 3 Este 6 Este 0 -- -- 96
2019-01-19 23:00:00 2.4 5 Este 6 Este 0 -- -- 96
2019-01-19 22:00:00 2.5 4 Este 5 Este 0 -- -- 95
2019-01-19 21:00:00 3.1 3 Este 5 Este 0 -- -- 93
2019-01-19 20:00:00 4.2 3 Este 5 Este 0 -- -- 91
2019-01-19 19:00:00 5.8 0 Calma 4 Sudoeste 0 -- -- 84
2019-01-19 18:00:00 9.9 2 Sudoeste 18 Sudoeste 0 -- -- 72
2019-01-19 17:00:00 13.2 7 Oeste 19 Oeste 0 -- -- 63
2019-01-19 16:00:00 14.1 7 Noroeste 17 Oeste 0 -- -- 57
2019-01-19 15:00:00 13.7 5 Noroeste 19 Oeste 0 -- -- 63
2019-01-19 14:00:00 12.9 2 Noroeste 13 Noroeste 0 -- -- 66
2019-01-19 13:00:00 14.7 4 Oeste 10 Oeste 0 -- -- 58
2019-01-19 12:00:00 13.1 4 Oeste 9 Oeste 0 -- -- 70
2019-01-19 11:00:00 9.9 0 Calma 4 Oeste 0 -- -- 100
2019-01-19 10:00:00 7.2 0 Calma 4 Noroeste 0 -- -- 100
2019-01-19 09:00:00 5 0 Calma 5 Este 0 -- -- 100
2019-01-19 08:00:00 3.9 4 Este 5 Este 0 -- -- 100
2019-01-19 07:00:00 3.2 3 Este 4 Este 0 -- -- 100
2019-01-19 06:00:00 2.9 0 Calma 3 Nordeste 0 -- -- 99
2019-01-19 05:00:00 3.4 0 Calma 4 Este 0 -- -- 99
2019-01-19 04:00:00 3.1 2 Este 4 Este 0 -- -- 99
2019-01-19 03:00:00 3.4 4 Este 8 Este 0 -- -- 99
2019-01-19 02:00:00 3.9 3 Este 5 Norte 0 -- -- 98
2019-01-19 01:00:00 3.6 3 Este 4 Este 0 -- -- 98
2019-01-19 00:00:00 4.1 3 Este 4 Nordeste 0 -- -- 96